Aérodrome :
LOGIN :

S'inscrire | Disclaimer

   EN    FR    IT 

 










Légende :    VFR   VFR Marginal   IFR   IFR Intensif   IFR Très Intensif
Visi : 
Plafond : 
>= 8 km
>= 3000ft
5 à 8 km
1000 à 3000 ft
1500m à 5 km
500 à 1000 ft
800 à 1500m
200 à 500 ft
< 800m
< 200 ft
Symboles :   Orages  Brouillard  Fortes neiges  Fortes précipitations  Vent > 20 kt
SIGMETs :   Divers  Orages  Givrage  Turbulence  Onde Orograph.  Cendres Volcan.






- Altitude de l'aérodrome : 659 ft
- Code IATA : LGG


EBLG - Liège

DERNIER METAR :
  • 071450Z 24011KT 9999 BKN034 08/04 Q1015 NOSIG

METARs EXPIRÉS :
  • 071420Z 24012KT 9999 FEW020 BKN030 08/04 Q1015 NOSIG
  • 071350Z 26010KT 9999 FEW020 BKN030 08/05 Q1015 NOSIG
  • 071320Z 25011KT 9999 FEW017 BKN040 09/05 Q1015 NOSIG
  • 071250Z 24011KT 9999 FEW017 BKN040 09/06 Q1015 NOSIG
  • 071220Z 24012KT 9999 BKN040 09/06 Q1015 NOSIG

TAF TAF EBLG
Valide du 07 à 12h jusqu'au 08 à 18h UTC


071110Z 0712/0818 23009KT 9999 FEW015 BKN040
BECMG 0804/0806 BKN008
TEMPO 0807/0812 22018G30KT 3500 RA
BECMG 0812/0814 FEW018
PROB40
TEMPO 0816/0818 22015G25KT 3500 SHRA BKN014CB



MET'MAP, la Météo Aéronautique d'un coup d'oeil ! - Copyright ORBIFLY Décembre 2007 - Disclaimer

ORBIFLY MET'MAP TEAM :

Programmation & Développement : Alexandra Zaïnal
Sur une idée originale de : Baudouin d'Aumeries
Assistance à la programmation : Marc-Olivier Méhu
Soutien technique & logistique : Manuel Goepfert

Contact : metmap@orbifly.com




SOURCES & CREDITS :

   NOAA